Time;durP1;ratioP1;P1;durP2;ratioP2;P2;SDS_P1;SDS_P2;PMS_P1;PMS_P2;Temp;Humidity;BMP_temperature;BMP_pressure;BME280_temperature;BME280_humidity;BME280_pressure;Samples;Min_cycle;Max_cycle;Signal;HPM_P1;HPM_P2
2021/07/24 00:01:04;;;;;;;23.38;18.67;;;14.50;99.90;;;;;;5029445;28;20145;-53
2021/07/24 00:03:32;;;;;;;20.42;17.95;;;14.50;99.90;;;;;;5030638;28;20053;-56
2021/07/24 00:05:59;;;;;;;24.15;18.88;;;14.50;99.90;;;;;;5030285;28;20077;-55
2021/07/24 00:08:26;;;;;;;23.40;19.42;;;14.40;99.90;;;;;;5030984;28;20138;-56
2021/07/24 00:10:52;;;;;;;23.70;18.05;;;14.40;99.90;;;;;;5034291;28;20041;-57
2021/07/24 00:13:18;;;;;;;25.05;18.80;;;14.40;99.90;;;;;;5030100;28;20063;-56
2021/07/24 00:15:44;;;;;;;24.00;18.92;;;14.40;99.90;;;;;;5030663;28;20180;-56
2021/07/24 00:18:10;;;;;;;23.25;20.20;;;14.40;99.90;;;;;;5029772;28;20152;-55
2021/07/24 00:20:37;;;;;;;20.25;17.60;;;14.30;99.90;;;;;;5032773;28;20533;-56
2021/07/24 00:23:03;;;;;;;23.00;20.15;;;14.30;99.90;;;;;;5034592;28;20215;-56
2021/07/24 00:25:30;;;;;;;24.95;19.05;;;14.30;99.90;;;;;;5033185;28;20410;-56
2021/07/24 00:28:07;;;;;;;25.80;19.75;;;14.30;99.90;;;;;;5029258;28;20271;-55
2021/07/24 00:30:37;;;;;;;22.30;18.90;;;14.30;99.90;;;;;;5030477;28;20556;-55
2021/07/24 00:33:05;;;;;;;23.08;19.80;;;14.20;99.90;;;;;;5028276;28;20046;-55
2021/07/24 00:35:31;;;;;;;24.38;19.55;;;14.20;99.90;;;;;;5029116;28;20112;-54
2021/07/24 00:37:57;;;;;;;24.15;20.45;;;14.20;99.90;;;;;;5043313;28;20102;-56
2021/07/24 00:40:26;;;;;;;27.90;20.33;;;14.20;99.90;;;;;;5029176;28;20060;-56
2021/07/24 00:42:53;;;;;;;25.55;19.27;;;14.20;99.90;;;;;;5029965;28;20042;-56
2021/07/24 00:45:20;;;;;;;24.33;18.45;;;14.20;99.90;;;;;;5027489;28;20194;-57
2021/07/24 00:47:52;;;;;;;23.38;19.60;;;14.20;99.90;;;;;;5043810;28;20049;-57
2021/07/24 00:50:34;;;;;;;23.42;19.15;;;14.10;99.90;;;;;;5027986;28;20056;-55
2021/07/24 00:53:10;;;;;;;22.60;18.95;;;14.10;99.90;;;;;;5029251;28;20602;-57
2021/07/24 00:55:36;;;;;;;22.75;19.23;;;14.00;99.90;;;;;;5027982;28;20199;-57
2021/07/24 00:58:23;;;;;;;24.58;19.52;;;14.00;99.90;;;;;;5028695;28;20698;-55
2021/07/24 01:00:49;;;;;;;25.50;19.48;;;14.00;99.90;;;;;;5030810;28;20065;-55
2021/07/24 01:03:16;;;;;;;22.98;18.90;;;14.00;99.90;;;;;;5043783;28;20045;-55
2021/07/24 01:05:48;;;;;;;22.42;18.38;;;14.00;99.90;;;;;;5043401;28;20106;-56
2021/07/24 01:08:14;;;;;;;25.40;18.48;;;13.90;99.90;;;;;;5028192;28;20054;-56
2021/07/24 01:10:42;;;;;;;23.55;19.92;;;13.90;99.90;;;;;;5026623;28;20045;-56
2021/07/24 01:13:10;;;;;;;22.77;18.98;;;13.90;99.90;;;;;;5042695;28;20501;-56
2021/07/24 01:15:36;;;;;;;24.80;19.88;;;13.90;99.90;;;;;;5027741;28;20071;-54
2021/07/24 01:18:02;;;;;;;22.20;17.35;;;13.90;99.90;;;;;;5026303;28;20060;-53
2021/07/24 01:20:31;;;;;;;23.88;19.73;;;13.80;99.90;;;;;;5033622;28;20069;-55
2021/07/24 01:22:59;;;;;;;23.50;20.25;;;13.80;99.90;;;;;;5010568;28;20148;-55
2021/07/24 01:25:25;;;;;;;26.92;19.65;;;13.80;99.90;;;;;;5026746;28;20049;-56
2021/07/24 01:27:51;;;;;;;24.73;20.17;;;13.80;99.90;;;;;;5043537;28;20064;-56
2021/07/24 01:30:18;;;;;;;26.50;20.27;;;13.80;99.90;;;;;;5028347;28;20049;-56
2021/07/24 01:32:46;;;;;;;23.77;19.55;;;13.80;99.90;;;;;;5011049;28;20494;-57
2021/07/24 01:35:12;;;;;;;25.85;20.02;;;13.70;99.90;;;;;;5028015;28;20621;-57
2021/07/24 01:37:40;;;;;;;24.60;19.55;;;13.80;99.90;;;;;;5043102;28;20603;-55
2021/07/24 01:40:07;;;;;;;26.10;21.05;;;13.80;99.90;;;;;;5028596;28;20055;-56
2021/07/24 01:42:35;;;;;;;25.60;18.38;;;13.80;99.90;;;;;;5026878;28;20069;-54
2021/07/24 01:45:01;;;;;;;26.30;19.17;;;13.70;99.90;;;;;;5027694;28;20093;-56
2021/07/24 01:47:28;;;;;;;24.77;19.40;;;13.70;99.90;;;;;;5042933;28;20111;-54
2021/07/24 01:52:46;;;;;;;25.75;20.02;;;13.70;99.90;;;;;;5029968;28;20052;-55
2021/07/24 01:55:23;;;;;;;28.35;21.67;;;13.70;99.90;;;;;;5022858;28;20553;-54
2021/07/24 01:58:14;;;;;;;26.98;19.63;;;13.70;99.90;;;;;;5031736;28;20494;-50
2021/07/24 02:00:52;;;;;;;29.95;20.25;;;13.70;99.90;;;;;;5031743;28;20049;-52
2021/07/24 02:04:06;;;;;;;25.92;19.52;;;13.70;99.90;;;;;;5025384;28;20160;-53
2021/07/24 02:06:42;;;;;;;26.58;19.10;;;13.60;99.90;;;;;;5007086;28;20060;-50
2021/07/24 02:09:13;;;;;;;;;;;13.60;99.90;;;;;;5019661;28;20048;-50
2021/07/24 02:11:43;;;;;;;27.60;21.10;;;13.50;99.90;;;;;;5026389;28;19932;-52
2021/07/24 02:14:11;;;;;;;28.58;20.33;;;13.60;99.90;;;;;;5042593;28;20406;-53
2021/07/24 02:16:40;;;;;;;25.60;19.38;;;13.60;99.90;;;;;;5028673;28;20431;-48
2021/07/24 02:19:09;;;;;;;33.03;21.90;;;13.50;99.90;;;;;;5042368;28;20048;-50
2021/07/24 02:21:42;;;;;;;27.48;19.20;;;13.60;99.90;;;;;;5027828;28;20056;-50
2021/07/24 02:24:09;;;;;;;28.90;20.52;;;13.60;99.90;;;;;;5025607;28;20127;-51
2021/07/24 02:26:42;;;;;;;29.35;20.30;;;13.60;99.90;;;;;;5027152;28;20444;-49
2021/07/24 02:29:08;;;;;;;29.27;20.98;;;13.60;99.90;;;;;;5027356;28;20107;-49
2021/07/24 02:31:34;;;;;;;30.30;20.70;;;13.60;99.90;;;;;;5030820;28;20452;-54
2021/07/24 02:34:03;;;;;;;26.90;19.02;;;13.50;99.90;;;;;;5025627;28;20088;-54
2021/07/24 02:36:29;;;;;;;30.17;20.42;;;13.50;99.90;;;;;;5041083;28;20060;-52
2021/07/24 02:38:56;;;;;;;28.27;20.42;;;13.50;99.90;;;;;;5042000;28;20137;-53
2021/07/24 02:41:22;;;;;;;29.67;20.05;;;13.50;99.90;;;;;;5028826;28;20125;-52
2021/07/24 02:43:48;;;;;;;28.60;20.85;;;13.50;99.90;;;;;;5029089;28;20767;-51
2021/07/24 02:46:19;;;;;;;29.90;19.75;;;13.50;99.90;;;;;;5025670;28;20058;-53
2021/07/24 02:48:47;;;;;;;26.50;20.27;;;13.50;99.90;;;;;;5041928;28;20053;-53
2021/07/24 02:51:25;;;;;;;31.90;21.38;;;13.50;99.90;;;;;;5025513;28;20050;-53
2021/07/24 02:53:52;;;;;;;29.92;20.77;;;13.50;99.90;;;;;;5025389;28;20061;-52
2021/07/24 02:56:18;;;;;;;35.28;22.77;;;13.40;99.90;;;;;;5027464;28;20076;-52
2021/07/24 02:58:45;;;;;;;27.70;20.80;;;13.40;99.90;;;;;;5042105;28;20421;-57
2021/07/24 03:01:15;;;;;;;31.73;22.75;;;13.40;99.90;;;;;;5028786;28;20053;-56
2021/07/24 03:03:41;;;;;;;30.17;21.90;;;13.40;99.90;;;;;;5032349;28;20132;-55
2021/07/24 03:06:07;;;;;;;29.80;20.70;;;13.40;99.90;;;;;;5031397;28;20064;-56
2021/07/24 03:08:33;;;;;;;29.67;20.63;;;13.40;99.90;;;;;;5035599;28;20045;-55
2021/07/24 03:10:59;;;;;;;28.88;20.55;;;13.30;99.90;;;;;;5031106;28;20107;-54
2021/07/24 03:13:25;;;;;;;34.00;21.85;;;13.30;99.90;;;;;;5034943;28;20543;-55
2021/07/24 03:15:51;;;;;;;29.63;20.85;;;13.30;99.90;;;;;;5030663;28;20050;-53
2021/07/24 03:18:18;;;;;;;35.47;21.92;;;13.30;99.90;;;;;;5029226;28;20136;-53
2021/07/24 03:20:44;;;;;;;34.92;23.85;;;13.30;99.90;;;;;;5030447;28;20057;-52
2021/07/24 03:23:10;;;;;;;31.40;22.25;;;13.30;99.90;;;;;;5045402;28;20053;-52
2021/07/24 03:25:41;;;;;;;34.00;22.90;;;13.30;99.90;;;;;;5030150;28;20490;-52
2021/07/24 03:28:07;;;;;;;34.65;23.38;;;13.30;99.90;;;;;;5031329;28;20052;-50
2021/07/24 03:30:33;;;;;;;39.10;24.30;;;13.30;99.90;;;;;;5033556;28;20051;-52
2021/07/24 03:32:59;;;;;;;33.55;24.23;;;13.30;99.90;;;;;;5030712;28;20502;-53
2021/07/24 03:35:25;;;;;;;37.97;24.08;;;13.30;99.90;;;;;;5031616;28;20042;-49
2021/07/24 03:37:51;;;;;;;36.95;24.92;;;13.30;99.90;;;;;;5031973;28;20050;-53
2021/07/24 03:40:20;;;;;;;37.35;24.75;;;13.30;99.90;;;;;;5031927;28;20049;-51
2021/07/24 03:42:46;;;;;;;35.95;23.95;;;13.20;99.90;;;;;;5030984;28;20041;-53
2021/07/24 03:45:12;;;;;;;36.13;24.48;;;13.20;99.90;;;;;;5031234;28;20144;-54
2021/07/24 03:47:38;;;;;;;39.67;25.10;;;13.20;99.90;;;;;;5030875;28;20053;-56
2021/07/24 03:50:05;;;;;;;36.92;25.05;;;13.20;99.90;;;;;;5030872;28;20057;-55
2021/07/24 03:52:33;;;;;;;38.63;24.30;;;13.20;99.90;;;;;;5030672;28;20081;-53
2021/07/24 03:55:00;;;;;;;38.42;26.02;;;13.20;99.90;;;;;;5030170;28;20056;-54
2021/07/24 03:57:26;;;;;;;36.67;23.98;;;13.20;99.90;;;;;;5018935;28;20417;-54
2021/07/24 03:59:54;;;;;;;37.47;24.40;;;13.20;99.90;;;;;;5010019;28;20062;-55
2021/07/24 04:02:25;;;;;;;38.05;24.63;;;13.20;99.90;;;;;;5029652;28;20049;-56
2021/07/24 04:04:52;;;;;;;37.00;25.17;;;13.20;99.90;;;;;;5017686;28;20144;-56
2021/07/24 04:07:21;;;;;;;37.65;25.83;;;13.20;99.90;;;;;;5030370;28;20214;-55
2021/07/24 04:09:47;;;;;;;35.08;24.23;;;13.20;99.90;;;;;;5029796;28;20565;-56
2021/07/24 04:12:14;;;;;;;35.67;24.13;;;13.30;99.90;;;;;;5029146;28;20053;-54
2021/07/24 04:14:41;;;;;;;32.53;24.60;;;13.30;99.90;;;;;;5028833;28;20497;-54
2021/07/24 04:17:07;;;;;;;32.33;23.02;;;13.40;99.90;;;;;;5029246;28;20050;-52
2021/07/24 04:19:34;;;;;;;35.42;23.73;;;13.30;99.90;;;;;;5044418;28;20057;-54
2021/07/24 04:22:00;;;;;;;40.38;25.27;;;13.30;99.90;;;;;;5029490;28;20694;-53
2021/07/24 04:24:26;;;;;;;36.63;23.15;;;13.30;99.90;;;;;;5027940;28;20107;-51
2021/07/24 04:26:52;;;;;;;35.15;23.70;;;13.40;99.90;;;;;;5045137;28;20535;-54
2021/07/24 04:29:21;;;;;;;35.45;23.92;;;13.40;99.90;;;;;;5029380;28;20046;-55
2021/07/24 04:31:47;;;;;;;39.38;24.42;;;13.50;99.90;;;;;;5029990;28;20052;-54
2021/07/24 04:34:13;;;;;;;33.03;23.33;;;13.40;99.90;;;;;;5029542;28;20136;-53
2021/07/24 04:36:41;;;;;;;33.80;24.00;;;13.50;99.90;;;;;;5031534;28;20120;-54
2021/07/24 04:39:08;;;;;;;33.58;23.77;;;13.50;99.90;;;;;;5028511;28;20180;-54
2021/07/24 04:41:34;;;;;;;33.75;24.13;;;13.70;99.90;;;;;;5028316;28;20054;-55
2021/07/24 04:44:00;;;;;;;35.25;23.83;;;13.70;99.90;;;;;;5027210;28;20049;-55
2021/07/24 04:46:26;;;;;;;34.13;23.40;;;13.70;99.90;;;;;;5028939;28;20053;-55
2021/07/24 04:48:52;;;;;;;32.92;22.05;;;13.80;99.90;;;;;;5028567;28;20149;-55
2021/07/24 04:51:18;;;;;;;29.38;22.20;;;13.80;99.90;;;;;;5028185;28;20056;-54
2021/07/24 04:53:46;;;;;;;34.50;22.50;;;13.90;99.90;;;;;;5029416;28;20058;-54
2021/07/24 04:56:12;;;;;;;29.33;21.10;;;13.90;99.90;;;;;;5036384;28;20052;-54
2021/07/24 04:58:39;;;;;;;30.63;21.80;;;14.00;99.90;;;;;;5029576;28;20049;-54
2021/07/24 05:01:08;;;;;;;29.42;21.85;;;14.00;99.90;;;;;;5028957;28;20051;-54
2021/07/24 05:03:35;;;;;;;30.20;22.35;;;14.10;99.90;;;;;;5028777;28;20131;-55
2021/07/24 05:06:04;;;;;;;31.27;21.95;;;14.10;99.90;;;;;;5027299;28;20132;-56
2021/07/24 05:08:35;;;;;;;30.13;21.35;;;14.10;99.90;;;;;;5029043;28;20053;-54
2021/07/24 05:11:02;;;;;;;;;;;14.20;99.90;;;;;;5028358;28;20150;-54
2021/07/24 05:13:30;;;;;;;29.63;20.67;;;14.30;99.90;;;;;;5028566;28;20489;-55
2021/07/24 05:15:58;;;;;;;27.92;20.75;;;14.50;99.90;;;;;;5028626;28;20053;-54
2021/07/24 05:18:24;;;;;;;26.75;19.52;;;14.80;99.90;;;;;;5028226;28;20046;-54
2021/07/24 05:20:50;;;;;;;27.08;20.23;;;15.10;99.90;;;;;;5028656;28;20271;-56
2021/07/24 05:23:16;;;;;;;23.55;18.73;;;15.10;99.90;;;;;;5027225;28;20049;-55
2021/07/24 05:25:42;;;;;;;24.02;18.55;;;15.20;99.90;;;;;;5028008;28;20053;-54
2021/07/24 05:28:09;;;;;;;24.17;18.63;;;15.40;99.90;;;;;;5028391;28;20053;-54
2021/07/24 05:30:35;;;;;;;21.88;18.85;;;15.60;99.90;;;;;;5032447;28;20049;-54
2021/07/24 05:33:02;;;;;;;24.23;17.88;;;15.70;99.90;;;;;;5028645;28;20060;-52
2021/07/24 05:35:28;;;;;;;24.33;18.48;;;16.00;99.90;;;;;;5028159;28;20045;-54
2021/07/24 05:37:54;;;;;;;22.13;17.25;;;16.10;99.90;;;;;;5027338;28;20509;-54
2021/07/24 05:40:20;;;;;;;20.63;16.92;;;16.50;99.90;;;;;;5027495;28;20081;-57
2021/07/24 05:42:46;;;;;;;20.77;17.13;;;16.70;99.90;;;;;;5030628;28;20041;-56
2021/07/24 05:45:12;;;;;;;20.15;15.48;;;17.10;99.90;;;;;;5028195;28;20056;-55
2021/07/24 05:47:38;;;;;;;21.25;16.77;;;17.20;99.90;;;;;;5027454;28;20069;-57
2021/07/24 05:50:06;;;;;;;19.60;16.58;;;17.40;99.90;;;;;;5026887;28;20056;-57
2021/07/24 05:52:32;;;;;;;18.85;15.27;;;17.60;99.90;;;;;;5031671;28;20390;-58
2021/07/24 05:54:58;;;;;;;19.70;15.13;;;17.70;99.90;;;;;;5025586;28;20054;-57
2021/07/24 05:57:25;;;;;;;20.85;16.15;;;17.80;99.90;;;;;;5010831;28;20053;-56
2021/07/24 05:59:51;;;;;;;18.80;15.15;;;17.90;99.90;;;;;;5026569;28;20099;-56
2021/07/24 06:02:17;;;;;;;21.33;16.67;;;18.00;99.90;;;;;;5041210;28;20489;-56
2021/07/24 06:04:43;;;;;;;18.10;14.93;;;18.20;99.90;;;;;;5024018;28;20784;-56
2021/07/24 06:07:13;;;;;;;17.25;15.00;;;18.20;99.90;;;;;;5025436;28;20049;-54
2021/07/24 06:09:39;;;;;;;16.90;15.10;;;18.40;99.90;;;;;;5027044;28;20049;-56
2021/07/24 06:12:07;;;;;;;17.80;14.68;;;18.60;99.90;;;;;;5026265;28;20457;-56
2021/07/24 06:14:33;;;;;;;16.65;14.23;;;18.60;99.90;;;;;;5026487;28;20049;-53
2021/07/24 06:17:02;;;;;;;16.70;14.10;;;18.70;99.90;;;;;;5025315;28;20417;-56
2021/07/24 06:19:29;;;;;;;17.92;14.20;;;18.60;99.90;;;;;;5024219;28;20060;-56
2021/07/24 06:21:55;;;;;;;17.92;14.32;;;18.50;99.90;;;;;;5024275;28;20045;-57
2021/07/24 06:24:21;;;;;;;17.75;13.43;;;18.60;99.90;;;;;;5023284;28;20090;-58
2021/07/24 06:26:47;;;;;;;46.60;39.08;;;18.80;99.90;;;;;;5028351;28;20041;-58
2021/07/24 06:29:13;;;;;;;18.50;15.50;;;18.60;99.90;;;;;;5026775;28;20057;-56
2021/07/24 06:31:40;;;;;;;52.55;46.88;;;19.00;99.90;;;;;;5026386;28;20046;-57
2021/07/24 06:34:06;;;;;;;76.38;68.18;;;19.00;99.90;;;;;;5025353;28;20095;-57
2021/07/24 06:36:39;;;;;;;37.38;32.28;;;19.20;99.90;;;;;;5032292;28;20501;-55
2021/07/24 06:39:05;;;;;;;32.05;27.33;;;19.30;99.90;;;;;;5032839;28;20076;-55
2021/07/24 06:41:34;;;;;;;26.17;23.30;;;19.50;99.90;;;;;;5031451;28;20456;-55
2021/07/24 06:44:03;;;;;;;22.38;17.77;;;19.50;99.90;;;;;;5038788;28;20049;-57
2021/07/24 06:46:29;;;;;;;27.67;24.42;;;19.70;99.90;;;;;;5033199;28;20052;-54
2021/07/24 06:48:55;;;;;;;15.98;13.05;;;19.90;99.90;;;;;;5032220;28;20068;-57
2021/07/24 06:51:21;;;;;;;70.72;63.03;;;20.10;99.90;;;;;;5034016;28;20440;-55
2021/07/24 06:53:48;;;;;;;27.15;24.13;;;20.10;99.90;;;;;;5031583;28;20049;-56
2021/07/24 06:56:14;;;;;;;44.10;39.47;;;20.30;99.90;;;;;;5031913;28;20057;-56
2021/07/24 06:58:40;;;;;;;16.85;14.10;;;20.30;99.90;;;;;;5035755;28;20405;-56
2021/07/24 07:01:07;;;;;;;16.95;14.40;;;20.60;99.90;;;;;;5034029;28;20053;-56
2021/07/24 07:03:34;;;;;;;31.00;27.65;;;20.70;99.90;;;;;;5033268;28;20049;-55
2021/07/24 07:06:03;;;;;;;20.02;17.90;;;20.70;99.90;;;;;;5037377;28;20046;-56
2021/07/24 07:08:30;;;;;;;13.32;11.88;;;20.90;99.90;;;;;;5032216;28;20057;-56
2021/07/24 07:11:04;;;;;;;14.75;13.18;;;21.00;99.90;;;;;;5040061;28;20409;-54
2021/07/24 07:13:31;;;;;;;13.02;11.52;;;21.40;99.90;;;;;;5034914;28;20064;-56
2021/07/24 07:15:57;;;;;;;35.17;31.25;;;21.20;99.90;;;;;;5030517;28;20045;-57
2021/07/24 07:18:24;;;;;;;27.10;24.27;;;21.30;99.90;;;;;;5032740;28;20042;-56
2021/07/24 07:20:50;;;;;;;18.80;14.00;;;21.40;99.90;;;;;;5033993;28;20115;-57
2021/07/24 07:23:19;;;;;;;12.10;10.32;;;21.40;99.90;;;;;;5032827;28;20758;-56
2021/07/24 07:25:46;;;;;;;14.07;10.07;;;21.20;99.90;;;;;;5032086;28;20049;-57
2021/07/24 07:28:12;;;;;;;12.80;10.27;;;21.30;99.90;;;;;;5030544;28;20527;-57
2021/07/24 07:30:38;;;;;;;11.07;9.52;;;21.10;99.90;;;;;;5032271;28;20045;-56
2021/07/24 07:33:04;;;;;;;11.25;9.05;;;21.10;99.90;;;;;;5033202;28;20053;-57
2021/07/24 07:35:30;;;;;;;13.15;9.73;;;21.20;99.90;;;;;;5033732;28;20053;-56
2021/07/24 07:37:56;;;;;;;11.32;10.20;;;21.40;99.90;;;;;;5031034;28;20052;-59
2021/07/24 07:40:25;;;;;;;10.60;9.07;;;21.80;99.90;;;;;;5026926;28;20128;-50
2021/07/24 07:42:51;;;;;;;11.13;9.50;;;21.70;99.90;;;;;;5041065;28;20075;-48
2021/07/24 07:45:18;;;;;;;11.20;8.95;;;22.00;99.90;;;;;;5031810;28;20057;-47
2021/07/24 07:47:44;;;;;;;12.43;10.38;;;21.80;99.90;;;;;;5028101;28;20207;-52
2021/07/24 07:50:12;;;;;;;11.20;8.95;;;21.90;99.60;;;;;;5027595;28;20111;-49
2021/07/24 07:52:38;;;;;;;10.48;9.38;;;22.10;99.90;;;;;;5031754;28;20042;-50
2021/07/24 07:55:05;;;;;;;10.90;9.15;;;22.30;99.90;;;;;;5029302;28;20537;-53
2021/07/24 07:57:32;;;;;;;10.38;8.50;;;22.40;97.80;;;;;;5027827;28;20128;-50
2021/07/24 07:59:58;;;;;;;12.75;10.88;;;22.60;96.80;;;;;;5030118;28;20050;-49
2021/07/24 08:02:25;;;;;;;10.00;8.95;;;22.70;96.50;;;;;;5027893;28;20164;-48
2021/07/24 08:04:54;;;;;;;9.95;8.95;;;22.60;96.20;;;;;;5029224;28;20084;-52
2021/07/24 08:07:20;;;;;;;10.73;8.23;;;22.90;95.30;;;;;;5023599;28;20049;-53
2021/07/24 08:09:49;;;;;;;12.30;9.63;;;23.10;94.90;;;;;;5029480;28;20081;-49
2021/07/24 08:12:15;;;;;;;11.02;9.20;;;23.40;94.20;;;;;;5035754;28;20052;-51
2021/07/24 08:14:44;;;;;;;12.30;8.45;;;23.20;92.40;;;;;;5029642;28;20110;-49
2021/07/24 08:17:11;;;;;;;11.10;8.20;;;23.60;92.20;;;;;;5023434;28;20049;-54
2021/07/24 08:19:39;;;;;;;13.48;9.90;;;23.90;92.60;;;;;;5021186;28;20800;-55
2021/07/24 08:22:05;;;;;;;11.60;10.10;;;24.20;90.40;;;;;;5021714;28;20060;-54
2021/07/24 08:24:32;;;;;;;9.50;8.43;;;24.30;88.00;;;;;;5028453;28;20486;-52
2021/07/24 08:26:58;;;;;;;10.95;8.27;;;24.20;86.90;;;;;;5025217;28;20045;-53
2021/07/24 08:29:26;;;;;;;9.10;7.15;;;24.60;85.10;;;;;;5028653;28;20057;-56
2021/07/24 08:31:55;;;;;;;9.63;8.63;;;24.50;79.10;;;;;;5029640;28;20469;-52
2021/07/24 08:34:21;;;;;;;16.25;14.15;;;24.60;81.60;;;;;;5034614;28;20045;-55
2021/07/24 08:36:50;;;;;;;10.90;9.60;;;24.50;80.30;;;;;;5031631;28;20045;-55
2021/07/24 08:39:16;;;;;;;9.95;8.63;;;24.80;78.80;;;;;;5029383;28;20452;-56
2021/07/24 08:41:43;;;;;;;12.32;9.95;;;25.10;76.70;;;;;;5029199;28;20049;-55
2021/07/24 08:44:15;;;;;;;13.50;10.05;;;25.20;75.90;;;;;;5031397;28;20046;-51
2021/07/24 08:46:44;;;;;;;24.42;21.90;;;25.40;74.10;;;;;;5027594;28;20115;-57
2021/07/24 08:49:16;;;;;;;8.52;7.03;;;25.50;73.50;;;;;;5028490;28;20188;-57
2021/07/24 08:51:42;;;;;;;13.13;11.45;;;25.60;74.40;;;;;;5029172;28;20124;-56
2021/07/24 08:54:09;;;;;;;10.48;9.50;;;26.00;73.40;;;;;;5028461;28;20068;-56
2021/07/24 08:56:44;;;;;;;10.98;9.88;;;25.90;69.50;;;;;;5027912;28;20052;-56
2021/07/24 08:59:14;;;;;;;18.85;16.90;;;26.10;71.30;;;;;;5028687;28;20520;-57
2021/07/24 09:01:54;;;;;;;24.80;22.48;;;26.20;68.60;;;;;;5029106;28;20049;-56
2021/07/24 09:04:24;;;;;;;11.10;10.00;;;26.10;68.00;;;;;;5027607;28;20051;-57
2021/07/24 09:07:01;;;;;;;9.57;8.60;;;26.40;68.00;;;;;;5033399;28;20073;-57
2021/07/24 09:09:27;;;;;;;11.75;10.05;;;26.20;67.70;;;;;;5040145;28;20063;-57
2021/07/24 09:11:56;;;;;;;14.98;10.98;;;26.30;69.00;;;;;;5029092;28;20045;-57
2021/07/24 09:14:22;;;;;;;9.65;7.78;;;26.40;67.70;;;;;;5026890;28;20049;-57
2021/07/24 09:16:52;;;;;;;10.07;8.55;;;26.40;67.70;;;;;;5028592;28;20061;-57
2021/07/24 09:19:19;;;;;;;11.38;9.63;;;26.00;66.20;;;;;;5028549;28;20596;-57
2021/07/24 09:21:51;;;;;;;9.93;8.90;;;26.40;66.40;;;;;;5028702;28;20052;-57
2021/07/24 09:24:23;;;;;;;13.95;12.07;;;26.60;67.40;;;;;;5042458;28;20045;-57
2021/07/24 09:26:51;;;;;;;10.52;7.75;;;26.70;66.10;;;;;;5030071;28;20041;-57
2021/07/24 09:29:20;;;;;;;9.43;8.43;;;26.50;64.70;;;;;;5025180;28;20695;-57
2021/07/24 09:31:48;;;;;;;13.80;12.32;;;26.30;66.50;;;;;;5034816;28;20095;-58
2021/07/24 09:34:16;;;;;;;12.15;11.00;;;26.50;66.10;;;;;;5027796;28;20356;-57
2021/07/24 09:36:50;;;;;;;9.38;8.23;;;26.80;65.20;;;;;;5027238;28;20045;-57
2021/07/24 09:39:19;;;;;;;8.95;7.22;;;26.90;63.60;;;;;;5029736;28;20053;-58
2021/07/24 09:41:49;;;;;;;10.73;7.95;;;26.90;63.60;;;;;;5027102;28;20524;-57
2021/07/24 09:44:30;;;;;;;14.38;12.98;;;27.00;62.20;;;;;;5023635;28;20057;-58
2021/07/24 09:46:58;;;;;;;8.40;6.82;;;26.70;63.70;;;;;;5034762;28;20045;-58
2021/07/24 09:50:09;;;;;;;13.32;10.65;;;26.50;65.60;;;;;;5026718;28;20511;-60
2021/07/24 09:52:45;;;;;;;13.20;11.00;;;27.10;65.70;;;;;;4984746;28;20047;-57
2021/07/24 09:55:19;;;;;;;13.32;11.98;;;27.10;63.50;;;;;;4975297;28;20046;-58
2021/07/24 09:57:46;;;;;;;16.65;14.93;;;27.40;64.30;;;;;;4981537;28;20092;-58
2021/07/24 10:00:39;;;;;;;16.13;14.55;;;27.50;63.60;;;;;;4985460;28;20046;-58
2021/07/24 10:03:06;;;;;;;16.45;14.88;;;27.00;62.30;;;;;;4984078;28;20065;-58
2021/07/24 10:10:02;;;;;;;17.63;14.73;;;27.20;63.10;;;;;;4974675;28;20515;-58
2021/07/24 10:13:06;;;;;;;17.33;11.15;;;27.30;63.40;;;;;;4962928;28;20162;-59
2021/07/24 10:15:59;;;;;;;8.32;7.28;;;27.30;61.70;;;;;;4967976;28;20047;-58
2021/07/24 10:18:47;;;;;;;9.98;8.68;;;27.40;62.60;;;;;;4955492;28;20050;-58
2021/07/24 10:21:39;;;;;;;8.73;7.25;;;27.40;61.80;;;;;;4984269;28;20054;-58
2021/07/24 10:24:31;;;;;;;10.30;8.32;;;27.60;62.00;;;;;;4982833;28;20129;-58
2021/07/24 10:27:23;;;;;;;8.13;7.28;;;27.60;63.10;;;;;;4985159;28;20064;-58
2021/07/24 10:30:15;;;;;;;14.70;8.70;;;28.00;63.60;;;;;;5009768;28;20050;-58
2021/07/24 10:32:59;;;;;;;10.05;8.18;;;27.80;61.10;;;;;;5027803;28;20037;-58
2021/07/24 10:42:38;;;;;;;13.73;11.93;;;27.60;60.40;;;;;;5010435;28;20046;-50
2021/07/24 10:45:04;;;;;;;21.80;19.65;;;27.50;61.00;;;;;;5019418;28;20092;-52
2021/07/24 10:47:33;;;;;;;26.15;23.40;;;27.50;61.40;;;;;;5023507;28;20064;-48
2021/07/24 10:50:03;;;;;;;15.13;13.63;;;27.20;61.90;;;;;;5021107;28;20063;-50
2021/07/24 10:53:12;;;;;;;25.25;22.88;;;27.40;62.90;;;;;;4987885;28;20049;-49
2021/07/24 10:55:38;;;;;;;14.43;12.98;;;27.70;64.90;;;;;;5028808;28;20174;-55
2021/07/24 10:58:05;;;;;;;11.25;10.15;;;28.40;64.00;;;;;;5024707;28;20065;-52
2021/07/24 11:00:34;;;;;;;14.23;12.80;;;28.60;61.40;;;;;;5036814;28;20049;-54
2021/07/24 11:03:00;;;;;;;11.55;10.05;;;28.90;61.00;;;;;;5043063;28;20499;-51
2021/07/24 11:05:28;;;;;;;12.77;11.50;;;29.30;60.40;;;;;;5045546;28;20053;-52
2021/07/24 11:07:55;;;;;;;9.55;8.00;;;29.80;60.50;;;;;;5035176;28;20516;-49
2021/07/24 11:10:22;;;;;;;9.32;8.13;;;30.10;59.20;;;;;;5012399;28;20402;-52
2021/07/24 11:12:49;;;;;;;11.68;10.50;;;30.40;58.70;;;;;;5035679;28;20056;-51
2021/07/24 11:15:20;;;;;;;9.63;8.45;;;30.30;58.10;;;;;;5037167;28;20068;-54
2021/07/24 11:18:24;;;;;;;10.55;8.75;;;30.40;56.10;;;;;;5026361;28;20083;-51
2021/07/24 11:20:51;;;;;;;8.13;7.32;;;30.30;56.40;;;;;;5027508;28;20044;-53
2021/07/24 11:23:20;;;;;;;11.82;8.43;;;30.40;57.00;;;;;;5029119;28;20081;-54
2021/07/24 11:25:47;;;;;;;10.27;9.27;;;30.30;56.30;;;;;;5035766;28;20481;-52
2021/07/24 11:28:21;;;;;;;11.05;8.13;;;30.40;55.60;;;;;;5043416;28;20128;-50
2021/07/24 11:31:02;;;;;;;8.40;7.45;;;30.30;54.30;;;;;;5057199;28;20049;-53
2021/07/24 11:33:30;;;;;;;9.57;8.00;;;30.10;54.90;;;;;;5044135;28;20037;-52
2021/07/24 11:36:08;;;;;;;13.48;8.90;;;30.10;55.10;;;;;;5033053;28;20053;-52
2021/07/24 11:38:36;;;;;;;12.00;7.75;;;29.90;54.20;;;;;;5029640;28;20049;-51
2021/07/24 11:41:11;;;;;;;14.15;12.75;;;29.90;55.70;;;;;;5032887;28;20886;-49
2021/07/24 11:43:37;;;;;;;12.15;10.98;;;29.70;55.80;;;;;;5046371;28;20046;-48
2021/07/24 11:46:06;;;;;;;12.35;9.27;;;29.40;56.60;;;;;;5053462;28;20211;-49
2021/07/24 11:48:34;;;;;;;12.15;10.23;;;29.40;57.20;;;;;;5024630;28;20050;-53
2021/07/24 11:51:06;;;;;;;13.55;9.85;;;29.30;57.00;;;;;;5034944;28;20076;-51
2021/07/24 11:53:33;;;;;;;12.13;8.82;;;29.00;57.40;;;;;;5050032;28;20056;-49
2021/07/24 11:56:00;;;;;;;8.93;8.05;;;29.30;57.50;;;;;;5048399;28;20136;-59
2021/07/24 11:58:27;;;;;;;11.45;9.82;;;29.50;57.70;;;;;;5039006;28;20045;-56
2021/07/24 12:00:55;;;;;;;8.80;7.85;;;29.30;57.40;;;;;;5039815;28;20060;-57
2021/07/24 12:03:33;;;;;;;11.18;8.20;;;29.40;57.10;;;;;;5047492;28;20484;-56
2021/07/24 12:06:14;;;;;;;11.45;8.43;;;29.50;56.60;;;;;;5030373;28;20053;-57
2021/07/24 12:08:44;;;;;;;11.75;8.52;;;29.30;57.30;;;;;;5032375;28;20501;-57
2021/07/24 12:11:19;;;;;;;40.83;36.72;;;29.50;57.90;;;;;;5044166;28;20081;-58
2021/07/24 12:13:46;;;;;;;16.10;14.55;;;29.10;57.40;;;;;;5040882;28;20099;-56
2021/07/24 12:16:13;;;;;;;20.30;18.40;;;29.00;57.90;;;;;;5033103;28;20052;-58
2021/07/24 12:18:41;;;;;;;16.05;14.35;;;29.00;58.10;;;;;;5035330;28;20523;-59
2021/07/24 12:21:12;;;;;;;11.68;10.48;;;29.00;58.30;;;;;;5035718;28;20190;-51
2021/07/24 12:23:43;;;;;;;19.85;18.13;;;28.80;57.80;;;;;;5030453;28;20128;-56
2021/07/24 12:26:19;;;;;;;35.00;31.48;;;28.80;59.30;;;;;;5030251;28;20053;-56
2021/07/24 12:28:45;;;;;;;22.02;19.85;;;29.00;58.90;;;;;;5024227;28;20526;-52
2021/07/24 12:31:19;;;;;;;10.00;8.82;;;29.20;57.90;;;;;;5022194;28;20494;-55
2021/07/24 12:33:52;;;;;;;10.32;7.63;;;29.00;56.90;;;;;;5008963;28;20062;-57
2021/07/24 12:36:21;;;;;;;9.10;7.50;;;29.00;57.50;;;;;;5036160;28;20055;-57
2021/07/24 12:38:47;;;;;;;8.85;7.95;;;29.00;57.10;;;;;;5040719;28;20108;-57
2021/07/24 12:41:16;;;;;;;10.48;7.78;;;28.70;57.20;;;;;;5036419;28;20426;-50
2021/07/24 12:44:05;;;;;;;9.43;7.80;;;28.50;58.40;;;;;;5011179;28;20053;-51
2021/07/24 12:46:33;;;;;;;12.50;9.82;;;28.60;57.70;;;;;;5034236;28;20048;-52
2021/07/24 12:48:59;;;;;;;15.15;13.52;;;28.60;57.50;;;;;;5033566;28;20064;-53
2021/07/24 12:51:37;;;;;;;11.93;8.85;;;28.30;57.90;;;;;;5033709;28;20104;-52
2021/07/24 12:54:16;;;;;;;25.70;22.95;;;28.20;58.80;;;;;;5041755;28;20053;-56
2021/07/24 12:56:45;;;;;;;13.50;10.40;;;28.20;59.40;;;;;;5040706;28;20132;-57